sensor_id;sensor_type;location;lat;lon;timestamp;temperature;humidity
40952;DHT22;26682;51.660;19.338;2022-10-31T00:00:08;8.20;99.90
40952;DHT22;26682;51.660;19.338;2022-10-31T00:02:17;8.10;99.90
40952;DHT22;26682;51.660;19.338;2022-10-31T00:04:03;8.10;99.90
40952;DHT22;26682;51.660;19.338;2022-10-31T00:05:50;8.10;99.90
40952;DHT22;26682;51.660;19.338;2022-10-31T00:07:36;8.10;99.90
40952;DHT22;26682;51.660;19.338;2022-10-31T00:09:21;8.10;99.90
40952;DHT22;26682;51.660;19.338;2022-10-31T00:11:11;8.20;99.90
40952;DHT22;26682;51.660;19.338;2022-10-31T00:12:56;8.10;99.90
40952;DHT22;26682;51.660;19.338;2022-10-31T00:14:43;8.10;99.90
40952;DHT22;26682;51.660;19.338;2022-10-31T00:16:29;8.10;99.90
40952;DHT22;26682;51.660;19.338;2022-10-31T00:18:15;8.10;99.90
40952;DHT22;26682;51.660;19.338;2022-10-31T00:20:02;8.00;99.90
40952;DHT22;26682;51.660;19.338;2022-10-31T00:21:51;8.00;99.90
40952;DHT22;26682;51.660;19.338;2022-10-31T00:23:37;8.10;99.90
40952;DHT22;26682;51.660;19.338;2022-10-31T00:25:23;8.00;99.90
40952;DHT22;26682;51.660;19.338;2022-10-31T00:27:09;8.00;99.90
40952;DHT22;26682;51.660;19.338;2022-10-31T00:28:56;8.00;99.90
40952;DHT22;26682;51.660;19.338;2022-10-31T00:30:42;7.90;99.90
40952;DHT22;26682;51.660;19.338;2022-10-31T00:32:31;7.90;99.90
40952;DHT22;26682;51.660;19.338;2022-10-31T00:34:17;7.90;99.90
40952;DHT22;26682;51.660;19.338;2022-10-31T00:36:04;7.90;99.90
40952;DHT22;26682;51.660;19.338;2022-10-31T00:37:52;7.90;99.90
40952;DHT22;26682;51.660;19.338;2022-10-31T00:39:38;7.90;99.90
40952;DHT22;26682;51.660;19.338;2022-10-31T00:41:24;7.90;99.90
40952;DHT22;26682;51.660;19.338;2022-10-31T00:43:10;7.90;99.90
40952;DHT22;26682;51.660;19.338;2022-10-31T00:44:56;7.90;99.90
40952;DHT22;26682;51.660;19.338;2022-10-31T00:46:43;7.90;99.90
40952;DHT22;26682;51.660;19.338;2022-10-31T00:48:31;7.90;99.90
40952;DHT22;26682;51.660;19.338;2022-10-31T00:50:17;7.90;99.90
40952;DHT22;26682;51.660;19.338;2022-10-31T00:52:03;8.00;99.90
40952;DHT22;26682;51.660;19.338;2022-10-31T00:53:49;7.90;99.90
40952;DHT22;26682;51.660;19.338;2022-10-31T00:55:35;7.90;99.90
40952;DHT22;26682;51.660;19.338;2022-10-31T00:57:21;7.90;99.90
40952;DHT22;26682;51.660;19.338;2022-10-31T00:59:07;7.80;99.90
40952;DHT22;26682;51.660;19.338;2022-10-31T01:00:55;7.80;99.90
40952;DHT22;26682;51.660;19.338;2022-10-31T01:02:41;7.80;99.90
40952;DHT22;26682;51.660;19.338;2022-10-31T01:04:27;7.80;99.90
40952;DHT22;26682;51.660;19.338;2022-10-31T01:06:14;7.80;99.90
40952;DHT22;26682;51.660;19.338;2022-10-31T01:08:01;7.80;99.90
40952;DHT22;26682;51.660;19.338;2022-10-31T01:09:47;7.80;99.90
40952;DHT22;26682;51.660;19.338;2022-10-31T01:11:33;7.80;99.90
40952;DHT22;26682;51.660;19.338;2022-10-31T01:13:22;7.90;99.90
40952;DHT22;26682;51.660;19.338;2022-10-31T01:15:11;7.90;99.90
40952;DHT22;26682;51.660;19.338;2022-10-31T01:16:57;7.90;99.90
40952;DHT22;26682;51.660;19.338;2022-10-31T01:18:43;7.90;99.90
40952;DHT22;26682;51.660;19.338;2022-10-31T01:20:29;7.90;99.90
40952;DHT22;26682;51.660;19.338;2022-10-31T01:22:15;8.00;99.90
40952;DHT22;26682;51.660;19.338;2022-10-31T01:24:01;8.00;99.90
40952;DHT22;26682;51.660;19.338;2022-10-31T01:25:48;8.00;99.90
40952;DHT22;26682;51.660;19.338;2022-10-31T01:27:35;8.00;99.90
40952;DHT22;26682;51.660;19.338;2022-10-31T01:29:21;8.00;99.90
40952;DHT22;26682;51.660;19.338;2022-10-31T01:31:09;7.90;99.90
40952;DHT22;26682;51.660;19.338;2022-10-31T01:32:56;7.90;99.90
40952;DHT22;26682;51.660;19.338;2022-10-31T01:34:43;7.90;99.90
40952;DHT22;26682;51.660;19.338;2022-10-31T01:36:36;7.90;99.90
40952;DHT22;26682;51.660;19.338;2022-10-31T01:38:23;7.80;99.90
40952;DHT22;26682;51.660;19.338;2022-10-31T01:40:10;7.90;99.90
40952;DHT22;26682;51.660;19.338;2022-10-31T01:41:56;7.80;99.90
40952;DHT22;26682;51.660;19.338;2022-10-31T01:44:00;7.90;99.90
40952;DHT22;26682;51.660;19.338;2022-10-31T01:45:51;7.90;99.90
40952;DHT22;26682;51.660;19.338;2022-10-31T01:47:44;7.90;99.90
40952;DHT22;26682;51.660;19.338;2022-10-31T01:49:49;7.80;99.90
40952;DHT22;26682;51.660;19.338;2022-10-31T01:51:40;7.80;99.90
40952;DHT22;26682;51.660;19.338;2022-10-31T01:53:28;7.80;99.90
40952;DHT22;26682;51.660;19.338;2022-10-31T01:55:26;7.80;99.90
40952;DHT22;26682;51.660;19.338;2022-10-31T01:57:14;7.90;99.90
40952;DHT22;26682;51.660;19.338;2022-10-31T01:59:02;7.90;99.90
40952;DHT22;26682;51.660;19.338;2022-10-31T02:00:53;7.80;99.90
40952;DHT22;26682;51.660;19.338;2022-10-31T02:02:44;7.80;99.90
40952;DHT22;26682;51.660;19.338;2022-10-31T02:04:31;7.80;99.90
40952;DHT22;26682;51.660;19.338;2022-10-31T02:06:37;7.90;99.90
40952;DHT22;26682;51.660;19.338;2022-10-31T02:08:31;7.80;99.90
40952;DHT22;26682;51.660;19.338;2022-10-31T02:10:21;7.80;99.90
40952;DHT22;26682;51.660;19.338;2022-10-31T02:12:09;7.80;99.90
40952;DHT22;26682;51.660;19.338;2022-10-31T02:13:58;7.80;99.90
40952;DHT22;26682;51.660;19.338;2022-10-31T02:15:47;7.80;99.90
40952;DHT22;26682;51.660;19.338;2022-10-31T02:17:35;7.80;99.90
40952;DHT22;26682;51.660;19.338;2022-10-31T02:19:34;7.80;99.90
40952;DHT22;26682;51.660;19.338;2022-10-31T02:31:57;7.70;99.90
40952;DHT22;26682;51.660;19.338;2022-10-31T02:33:52;7.70;99.90
40952;DHT22;26682;51.660;19.338;2022-10-31T02:35:47;7.70;99.90
40952;DHT22;26682;51.660;19.338;2022-10-31T02:40:00;7.70;99.90
40952;DHT22;26682;51.660;19.338;2022-10-31T02:42:08;7.70;99.90
40952;DHT22;26682;51.660;19.338;2022-10-31T02:44:08;7.70;99.90
40952;DHT22;26682;51.660;19.338;2022-10-31T02:48:33;7.60;99.90
40952;DHT22;26682;51.660;19.338;2022-10-31T02:50:42;7.60;99.90
40952;DHT22;26682;51.660;19.338;2022-10-31T02:52:32;7.60;99.90
40952;DHT22;26682;51.660;19.338;2022-10-31T02:54:24;7.60;99.90
40952;DHT22;26682;51.660;19.338;2022-10-31T02:56:17;7.60;99.90
40952;DHT22;26682;51.660;19.338;2022-10-31T02:58:11;7.60;99.90
40952;DHT22;26682;51.660;19.338;2022-10-31T03:00:02;7.60;99.90
40952;DHT22;26682;51.660;19.338;2022-10-31T03:08:11;7.50;99.90
40952;DHT22;26682;51.660;19.338;2022-10-31T03:10:20;7.50;99.90
40952;DHT22;26682;51.660;19.338;2022-10-31T03:12:27;7.50;99.90
40952;DHT22;26682;51.660;19.338;2022-10-31T03:14:22;7.50;99.90
40952;DHT22;26682;51.660;19.338;2022-10-31T03:18:10;7.50;99.90
40952;DHT22;26682;51.660;19.338;2022-10-31T03:20:00;7.50;99.90
40952;DHT22;26682;51.660;19.338;2022-10-31T03:23:59;7.50;99.90
40952;DHT22;26682;51.660;19.338;2022-10-31T03:25:46;7.50;99.90
40952;DHT22;26682;51.660;19.338;2022-10-31T03:27:35;7.50;99.90
40952;DHT22;26682;51.660;19.338;2022-10-31T03:29:25;7.50;99.90
40952;DHT22;26682;51.660;19.338;2022-10-31T03:31:17;7.50;99.90
40952;DHT22;26682;51.660;19.338;2022-10-31T03:33:07;7.50;99.90
40952;DHT22;26682;51.660;19.338;2022-10-31T03:35:00;7.50;99.90
40952;DHT22;26682;51.660;19.338;2022-10-31T03:36:51;7.40;99.90
40952;DHT22;26682;51.660;19.338;2022-10-31T03:38:41;7.50;99.90
40952;DHT22;26682;51.660;19.338;2022-10-31T03:40:29;7.40;99.90
40952;DHT22;26682;51.660;19.338;2022-10-31T03:42:20;7.40;99.90
40952;DHT22;26682;51.660;19.338;2022-10-31T03:44:14;7.50;99.90
40952;DHT22;26682;51.660;19.338;2022-10-31T03:46:02;7.50;99.90
40952;DHT22;26682;51.660;19.338;2022-10-31T03:47:49;7.50;99.90
40952;DHT22;26682;51.660;19.338;2022-10-31T03:49:36;7.50;99.90
40952;DHT22;26682;51.660;19.338;2022-10-31T03:53:44;7.50;99.90
40952;DHT22;26682;51.660;19.338;2022-10-31T03:55:42;7.50;99.90
40952;DHT22;26682;51.660;19.338;2022-10-31T03:57:33;7.50;99.90
40952;DHT22;26682;51.660;19.338;2022-10-31T03:59:35;7.50;99.90
40952;DHT22;26682;51.660;19.338;2022-10-31T04:01:24;7.50;99.90
40952;DHT22;26682;51.660;19.338;2022-10-31T04:03:19;7.50;99.90
40952;DHT22;26682;51.660;19.338;2022-10-31T04:05:10;7.50;99.90
40952;DHT22;26682;51.660;19.338;2022-10-31T04:06:58;7.50;99.90
40952;DHT22;26682;51.660;19.338;2022-10-31T04:08:49;7.50;99.90
40952;DHT22;26682;51.660;19.338;2022-10-31T04:10:40;7.50;99.90
40952;DHT22;26682;51.660;19.338;2022-10-31T04:12:29;7.50;99.90
40952;DHT22;26682;51.660;19.338;2022-10-31T04:14:39;7.50;99.90
40952;DHT22;26682;51.660;19.338;2022-10-31T04:16:27;7.50;99.90
40952;DHT22;26682;51.660;19.338;2022-10-31T04:18:14;7.50;99.90
40952;DHT22;26682;51.660;19.338;2022-10-31T04:20:00;7.50;99.90
40952;DHT22;26682;51.660;19.338;2022-10-31T04:21:47;7.50;99.90
40952;DHT22;26682;51.660;19.338;2022-10-31T04:23:35;7.50;99.90
40952;DHT22;26682;51.660;19.338;2022-10-31T04:25:28;7.50;99.90
40952;DHT22;26682;51.660;19.338;2022-10-31T04:27:14;7.50;99.90
40952;DHT22;26682;51.660;19.338;2022-10-31T04:29:00;7.60;99.90
40952;DHT22;26682;51.660;19.338;2022-10-31T04:30:47;7.60;99.90
40952;DHT22;26682;51.660;19.338;2022-10-31T04:32:33;7.60;99.90
40952;DHT22;26682;51.660;19.338;2022-10-31T04:34:20;7.60;99.90
40952;DHT22;26682;51.660;19.338;2022-10-31T04:36:06;7.70;99.90
40952;DHT22;26682;51.660;19.338;2022-10-31T04:37:52;7.70;99.90
40952;DHT22;26682;51.660;19.338;2022-10-31T04:39:39;7.70;99.90
40952;DHT22;26682;51.660;19.338;2022-10-31T04:41:54;7.70;99.90
40952;DHT22;26682;51.660;19.338;2022-10-31T04:43:40;7.70;99.90
40952;DHT22;26682;51.660;19.338;2022-10-31T04:45:26;7.70;99.90
40952;DHT22;26682;51.660;19.338;2022-10-31T04:47:13;7.70;99.90
40952;DHT22;26682;51.660;19.338;2022-10-31T04:48:59;7.70;99.90
40952;DHT22;26682;51.660;19.338;2022-10-31T04:50:45;7.70;99.90
40952;DHT22;26682;51.660;19.338;2022-10-31T04:52:32;7.70;99.90
40952;DHT22;26682;51.660;19.338;2022-10-31T04:54:19;7.70;99.90
40952;DHT22;26682;51.660;19.338;2022-10-31T04:56:14;7.70;99.90
40952;DHT22;26682;51.660;19.338;2022-10-31T04:58:04;7.70;99.90
40952;DHT22;26682;51.660;19.338;2022-10-31T04:59:51;7.70;99.90
40952;DHT22;26682;51.660;19.338;2022-10-31T05:01:37;7.70;99.90
40952;DHT22;26682;51.660;19.338;2022-10-31T05:03:23;7.70;99.90
40952;DHT22;26682;51.660;19.338;2022-10-31T05:05:10;7.70;99.90
40952;DHT22;26682;51.660;19.338;2022-10-31T05:06:56;7.70;99.90
40952;DHT22;26682;51.660;19.338;2022-10-31T05:08:42;7.70;99.90
40952;DHT22;26682;51.660;19.338;2022-10-31T05:10:30;7.70;99.90
40952;DHT22;26682;51.660;19.338;2022-10-31T05:12:18;7.60;99.90
40952;DHT22;26682;51.660;19.338;2022-10-31T05:14:23;7.70;99.90
40952;DHT22;26682;51.660;19.338;2022-10-31T05:16:28;7.70;99.90
40952;DHT22;26682;51.660;19.338;2022-10-31T05:18:32;7.70;99.90
40952;DHT22;26682;51.660;19.338;2022-10-31T05:20:37;7.70;99.90
40952;DHT22;26682;51.660;19.338;2022-10-31T05:22:23;7.70;99.90
40952;DHT22;26682;51.660;19.338;2022-10-31T05:24:09;7.70;99.90
40952;DHT22;26682;51.660;19.338;2022-10-31T05:25:56;7.80;99.90
40952;DHT22;26682;51.660;19.338;2022-10-31T05:27:43;7.70;99.90
40952;DHT22;26682;51.660;19.338;2022-10-31T05:29:29;7.80;99.90
40952;DHT22;26682;51.660;19.338;2022-10-31T05:31:20;7.80;99.90
40952;DHT22;26682;51.660;19.338;2022-10-31T05:33:07;7.80;99.90
40952;DHT22;26682;51.660;19.338;2022-10-31T05:35:19;7.80;99.90
40952;DHT22;26682;51.660;19.338;2022-10-31T05:37:23;7.70;99.90
40952;DHT22;26682;51.660;19.338;2022-10-31T05:39:09;7.70;99.90
40952;DHT22;26682;51.660;19.338;2022-10-31T05:41:01;7.70;99.90
40952;DHT22;26682;51.660;19.338;2022-10-31T05:42:54;7.70;99.90
40952;DHT22;26682;51.660;19.338;2022-10-31T05:44:41;7.70;99.90
40952;DHT22;26682;51.660;19.338;2022-10-31T05:46:46;7.70;99.90
40952;DHT22;26682;51.660;19.338;2022-10-31T05:48:57;7.70;99.90
40952;DHT22;26682;51.660;19.338;2022-10-31T05:51:02;7.80;99.90
40952;DHT22;26682;51.660;19.338;2022-10-31T05:53:15;7.80;99.90
40952;DHT22;26682;51.660;19.338;2022-10-31T05:55:02;7.80;99.90
40952;DHT22;26682;51.660;19.338;2022-10-31T05:56:49;7.90;99.90
40952;DHT22;26682;51.660;19.338;2022-10-31T05:58:35;7.90;99.90
40952;DHT22;26682;51.660;19.338;2022-10-31T06:00:25;7.90;99.90
40952;DHT22;26682;51.660;19.338;2022-10-31T06:02:11;7.90;99.90
40952;DHT22;26682;51.660;19.338;2022-10-31T06:04:16;7.90;99.90
40952;DHT22;26682;51.660;19.338;2022-10-31T06:06:02;7.90;99.90
40952;DHT22;26682;51.660;19.338;2022-10-31T06:07:56;8.00;99.90
40952;DHT22;26682;51.660;19.338;2022-10-31T06:09:43;8.00;99.90
40952;DHT22;26682;51.660;19.338;2022-10-31T06:11:30;8.10;99.90
40952;DHT22;26682;51.660;19.338;2022-10-31T06:13:22;8.00;99.90
40952;DHT22;26682;51.660;19.338;2022-10-31T06:15:16;8.00;99.90
40952;DHT22;26682;51.660;19.338;2022-10-31T06:17:02;8.00;99.90
40952;DHT22;26682;51.660;19.338;2022-10-31T06:18:58;8.00;99.90
40952;DHT22;26682;51.660;19.338;2022-10-31T06:20:47;8.00;99.90
40952;DHT22;26682;51.660;19.338;2022-10-31T06:22:34;8.00;99.90
40952;DHT22;26682;51.660;19.338;2022-10-31T06:24:22;8.10;99.90
40952;DHT22;26682;51.660;19.338;2022-10-31T06:26:25;8.10;99.90
40952;DHT22;26682;51.660;19.338;2022-10-31T06:28:12;8.10;99.90
40952;DHT22;26682;51.660;19.338;2022-10-31T06:30:11;8.10;99.90
40952;DHT22;26682;51.660;19.338;2022-10-31T06:31:57;8.20;99.90
40952;DHT22;26682;51.660;19.338;2022-10-31T06:33:44;8.20;99.90
40952;DHT22;26682;51.660;19.338;2022-10-31T06:35:32;8.30;99.90
40952;DHT22;26682;51.660;19.338;2022-10-31T06:37:19;8.30;99.90
40952;DHT22;26682;51.660;19.338;2022-10-31T06:39:10;8.30;99.90
40952;DHT22;26682;51.660;19.338;2022-10-31T06:40:56;8.40;99.90
40952;DHT22;26682;51.660;19.338;2022-10-31T06:42:45;8.40;99.90
40952;DHT22;26682;51.660;19.338;2022-10-31T06:44:31;8.50;99.90
40952;DHT22;26682;51.660;19.338;2022-10-31T06:46:36;8.60;99.90
40952;DHT22;26682;51.660;19.338;2022-10-31T06:49:00;8.70;99.90
40952;DHT22;26682;51.660;19.338;2022-10-31T06:51:01;8.70;99.90
40952;DHT22;26682;51.660;19.338;2022-10-31T06:52:56;8.80;99.90
40952;DHT22;26682;51.660;19.338;2022-10-31T06:54:42;8.80;99.90
40952;DHT22;26682;51.660;19.338;2022-10-31T06:56:28;8.90;99.90
40952;DHT22;26682;51.660;19.338;2022-10-31T06:58:17;9.00;99.90
40952;DHT22;26682;51.660;19.338;2022-10-31T07:00:06;9.00;99.90
40952;DHT22;26682;51.660;19.338;2022-10-31T07:02:02;9.10;99.90
40952;DHT22;26682;51.660;19.338;2022-10-31T07:03:48;9.20;99.90
40952;DHT22;26682;51.660;19.338;2022-10-31T07:05:35;9.30;99.90
40952;DHT22;26682;51.660;19.338;2022-10-31T07:07:22;9.40;99.90
40952;DHT22;26682;51.660;19.338;2022-10-31T07:09:09;9.40;99.90
40952;DHT22;26682;51.660;19.338;2022-10-31T07:10:57;9.50;99.90
40952;DHT22;26682;51.660;19.338;2022-10-31T07:12:47;9.60;99.90
40952;DHT22;26682;51.660;19.338;2022-10-31T07:14:34;9.70;99.90
40952;DHT22;26682;51.660;19.338;2022-10-31T07:16:21;9.80;99.90
40952;DHT22;26682;51.660;19.338;2022-10-31T07:18:10;9.90;99.90
40952;DHT22;26682;51.660;19.338;2022-10-31T07:19:57;10.00;99.90
40952;DHT22;26682;51.660;19.338;2022-10-31T07:21:43;10.10;99.90
40952;DHT22;26682;51.660;19.338;2022-10-31T07:23:33;10.10;99.90
40952;DHT22;26682;51.660;19.338;2022-10-31T07:25:42;10.10;99.90
40952;DHT22;26682;51.660;19.338;2022-10-31T07:27:42;10.20;99.90
40952;DHT22;26682;51.660;19.338;2022-10-31T07:29:29;10.30;99.90
40952;DHT22;26682;51.660;19.338;2022-10-31T07:31:15;10.30;99.90
40952;DHT22;26682;51.660;19.338;2022-10-31T07:33:01;10.40;99.90
40952;DHT22;26682;51.660;19.338;2022-10-31T07:35:22;10.50;99.90
40952;DHT22;26682;51.660;19.338;2022-10-31T07:37:18;10.60;99.90
40952;DHT22;26682;51.660;19.338;2022-10-31T07:39:04;10.60;99.90
40952;DHT22;26682;51.660;19.338;2022-10-31T07:40:56;10.60;99.90
40952;DHT22;26682;51.660;19.338;2022-10-31T07:42:47;10.70;99.90
40952;DHT22;26682;51.660;19.338;2022-10-31T07:44:53;10.70;99.90
40952;DHT22;26682;51.660;19.338;2022-10-31T07:46:58;10.70;99.90
40952;DHT22;26682;51.660;19.338;2022-10-31T07:49:03;10.80;99.90
40952;DHT22;26682;51.660;19.338;2022-10-31T07:50:58;10.90;99.90
40952;DHT22;26682;51.660;19.338;2022-10-31T07:53:09;11.00;99.90
40952;DHT22;26682;51.660;19.338;2022-10-31T07:55:14;11.00;99.90
40952;DHT22;26682;51.660;19.338;2022-10-31T07:57:07;11.10;99.90
40952;DHT22;26682;51.660;19.338;2022-10-31T07:58:55;11.20;99.90
40952;DHT22;26682;51.660;19.338;2022-10-31T08:00:44;11.20;99.90
40952;DHT22;26682;51.660;19.338;2022-10-31T08:02:36;11.20;99.90
40952;DHT22;26682;51.660;19.338;2022-10-31T08:04:48;11.30;99.90
40952;DHT22;26682;51.660;19.338;2022-10-31T08:06:53;11.40;99.90
40952;DHT22;26682;51.660;19.338;2022-10-31T08:08:48;11.40;99.90
40952;DHT22;26682;51.660;19.338;2022-10-31T08:10:35;11.50;99.90
40952;DHT22;26682;51.660;19.338;2022-10-31T08:12:21;11.50;99.90
40952;DHT22;26682;51.660;19.338;2022-10-31T08:14:08;11.60;99.90
40952;DHT22;26682;51.660;19.338;2022-10-31T08:15:57;11.60;99.90
40952;DHT22;26682;51.660;19.338;2022-10-31T08:17:49;11.60;99.90
40952;DHT22;26682;51.660;19.338;2022-10-31T08:19:35;11.60;99.90
40952;DHT22;26682;51.660;19.338;2022-10-31T08:21:22;11.60;99.90
40952;DHT22;26682;51.660;19.338;2022-10-31T08:23:11;11.70;99.90
40952;DHT22;26682;51.660;19.338;2022-10-31T08:24:58;11.70;99.90
40952;DHT22;26682;51.660;19.338;2022-10-31T08:26:44;11.70;99.90
40952;DHT22;26682;51.660;19.338;2022-10-31T08:28:31;11.60;99.90
40952;DHT22;26682;51.660;19.338;2022-10-31T08:30:25;11.60;99.90
40952;DHT22;26682;51.660;19.338;2022-10-31T08:32:31;11.60;99.90
40952;DHT22;26682;51.660;19.338;2022-10-31T08:34:59;11.60;99.90
40952;DHT22;26682;51.660;19.338;2022-10-31T08:37:06;11.60;99.90
40952;DHT22;26682;51.660;19.338;2022-10-31T08:38:59;11.70;99.90
40952;DHT22;26682;51.660;19.338;2022-10-31T08:40:48;11.70;99.90
40952;DHT22;26682;51.660;19.338;2022-10-31T08:42:36;11.70;99.90
40952;DHT22;26682;51.660;19.338;2022-10-31T08:44:22;11.80;99.90
40952;DHT22;26682;51.660;19.338;2022-10-31T08:46:09;11.80;99.90
40952;DHT22;26682;51.660;19.338;2022-10-31T08:47:57;11.80;99.90
40952;DHT22;26682;51.660;19.338;2022-10-31T08:49:43;11.90;99.90
40952;DHT22;26682;51.660;19.338;2022-10-31T08:51:29;11.90;99.90
40952;DHT22;26682;51.660;19.338;2022-10-31T08:53:18;11.90;99.90
40952;DHT22;26682;51.660;19.338;2022-10-31T08:55:09;11.90;99.90
40952;DHT22;26682;51.660;19.338;2022-10-31T08:57:18;12.00;99.90
40952;DHT22;26682;51.660;19.338;2022-10-31T08:59:06;12.10;99.90
40952;DHT22;26682;51.660;19.338;2022-10-31T09:01:05;12.20;99.90
40952;DHT22;26682;51.660;19.338;2022-10-31T09:02:58;12.20;99.90
40952;DHT22;26682;51.660;19.338;2022-10-31T09:04:47;12.20;99.90
40952;DHT22;26682;51.660;19.338;2022-10-31T09:06:33;12.20;99.90
40952;DHT22;26682;51.660;19.338;2022-10-31T09:08:19;12.20;99.90
40952;DHT22;26682;51.660;19.338;2022-10-31T09:10:07;12.30;99.90
40952;DHT22;26682;51.660;19.338;2022-10-31T09:11:56;12.30;99.90
40952;DHT22;26682;51.660;19.338;2022-10-31T09:14:00;12.40;99.90
40952;DHT22;26682;51.660;19.338;2022-10-31T09:16:12;12.50;99.90
40952;DHT22;26682;51.660;19.338;2022-10-31T09:17:58;12.60;99.90
40952;DHT22;26682;51.660;19.338;2022-10-31T09:19:58;12.60;99.90
40952;DHT22;26682;51.660;19.338;2022-10-31T09:21:56;12.70;99.90
40952;DHT22;26682;51.660;19.338;2022-10-31T09:23:44;12.80;99.90
40952;DHT22;26682;51.660;19.338;2022-10-31T09:25:32;12.80;99.90
40952;DHT22;26682;51.660;19.338;2022-10-31T09:27:48;12.90;99.90
40952;DHT22;26682;51.660;19.338;2022-10-31T09:29:34;13.00;99.90
40952;DHT22;26682;51.660;19.338;2022-10-31T09:31:23;13.10;99.90
40952;DHT22;26682;51.660;19.338;2022-10-31T09:33:11;13.10;99.90
40952;DHT22;26682;51.660;19.338;2022-10-31T09:35:00;13.10;99.90
40952;DHT22;26682;51.660;19.338;2022-10-31T09:36:47;13.20;99.90
40952;DHT22;26682;51.660;19.338;2022-10-31T09:38:38;13.00;99.90
40952;DHT22;26682;51.660;19.338;2022-10-31T09:40:34;13.10;99.90
40952;DHT22;26682;51.660;19.338;2022-10-31T09:45:22;13.20;99.90
40952;DHT22;26682;51.660;19.338;2022-10-31T09:48:00;13.30;99.90
40952;DHT22;26682;51.660;19.338;2022-10-31T09:50:15;13.30;99.90
40952;DHT22;26682;51.660;19.338;2022-10-31T09:54:20;13.40;99.90
40952;DHT22;26682;51.660;19.338;2022-10-31T09:56:13;13.50;99.90
40952;DHT22;26682;51.660;19.338;2022-10-31T09:58:01;13.50;99.90
40952;DHT22;26682;51.660;19.338;2022-10-31T09:59:49;13.60;99.90
40952;DHT22;26682;51.660;19.338;2022-10-31T10:02:00;13.60;99.90
40952;DHT22;26682;51.660;19.338;2022-10-31T10:03:50;13.70;99.90
40952;DHT22;26682;51.660;19.338;2022-10-31T10:08:26;13.70;99.90
40952;DHT22;26682;51.660;19.338;2022-10-31T10:17:26;13.80;99.90
40952;DHT22;26682;51.660;19.338;2022-10-31T10:23:34;14.00;99.90
40952;DHT22;26682;51.660;19.338;2022-10-31T10:25:38;14.10;99.90
40952;DHT22;26682;51.660;19.338;2022-10-31T10:27:46;14.10;99.90
40952;DHT22;26682;51.660;19.338;2022-10-31T10:29:50;14.10;99.90
40952;DHT22;26682;51.660;19.338;2022-10-31T10:31:42;14.20;99.90
40952;DHT22;26682;51.660;19.338;2022-10-31T10:33:38;14.30;99.90
40952;DHT22;26682;51.660;19.338;2022-10-31T10:35:41;14.30;99.90
40952;DHT22;26682;51.660;19.338;2022-10-31T10:37:32;14.40;99.90
40952;DHT22;26682;51.660;19.338;2022-10-31T10:41:14;14.60;99.90
40952;DHT22;26682;51.660;19.338;2022-10-31T10:43:24;14.60;99.90
40952;DHT22;26682;51.660;19.338;2022-10-31T10:45:17;14.50;99.90
40952;DHT22;26682;51.660;19.338;2022-10-31T10:47:22;14.40;99.90
40952;DHT22;26682;51.660;19.338;2022-10-31T10:49:32;14.20;99.90
40952;DHT22;26682;51.660;19.338;2022-10-31T10:51:38;14.20;99.90
40952;DHT22;26682;51.660;19.338;2022-10-31T10:54:03;14.20;99.90
40952;DHT22;26682;51.660;19.338;2022-10-31T10:56:26;14.20;99.90
40952;DHT22;26682;51.660;19.338;2022-10-31T10:58:16;14.30;99.90
40952;DHT22;26682;51.660;19.338;2022-10-31T11:00:20;14.40;99.90
40952;DHT22;26682;51.660;19.338;2022-10-31T11:02:26;14.40;99.90
40952;DHT22;26682;51.660;19.338;2022-10-31T11:04:27;14.40;99.90
40952;DHT22;26682;51.660;19.338;2022-10-31T11:06:18;14.30;99.90
40952;DHT22;26682;51.660;19.338;2022-10-31T11:08:08;14.30;99.90
40952;DHT22;26682;51.660;19.338;2022-10-31T11:10:04;14.40;99.90
40952;DHT22;26682;51.660;19.338;2022-10-31T11:11:51;14.50;99.90
40952;DHT22;26682;51.660;19.338;2022-10-31T11:13:37;14.50;99.90
40952;DHT22;26682;51.660;19.338;2022-10-31T11:15:28;14.50;99.90
40952;DHT22;26682;51.660;19.338;2022-10-31T11:17:25;14.50;99.90
40952;DHT22;26682;51.660;19.338;2022-10-31T11:19:25;14.50;99.90
40952;DHT22;26682;51.660;19.338;2022-10-31T11:21:32;14.60;99.90
40952;DHT22;26682;51.660;19.338;2022-10-31T11:23:22;14.60;99.90
40952;DHT22;26682;51.660;19.338;2022-10-31T11:25:27;14.70;99.90
40952;DHT22;26682;51.660;19.338;2022-10-31T11:27:16;14.80;99.90
40952;DHT22;26682;51.660;19.338;2022-10-31T11:29:02;14.80;99.90
40952;DHT22;26682;51.660;19.338;2022-10-31T11:30:51;14.90;99.90
40952;DHT22;26682;51.660;19.338;2022-10-31T11:32:44;15.00;99.90
40952;DHT22;26682;51.660;19.338;2022-10-31T11:34:35;15.00;99.90
40952;DHT22;26682;51.660;19.338;2022-10-31T11:36:25;15.00;99.90
40952;DHT22;26682;51.660;19.338;2022-10-31T11:38:18;15.00;99.90
40952;DHT22;26682;51.660;19.338;2022-10-31T11:40:06;15.00;99.90
40952;DHT22;26682;51.660;19.338;2022-10-31T11:42:03;15.00;99.90
40952;DHT22;26682;51.660;19.338;2022-10-31T11:43:58;15.00;99.90
40952;DHT22;26682;51.660;19.338;2022-10-31T11:45:45;15.00;99.90
40952;DHT22;26682;51.660;19.338;2022-10-31T11:47:31;15.10;99.90
40952;DHT22;26682;51.660;19.338;2022-10-31T11:51:21;15.10;99.90
40952;DHT22;26682;51.660;19.338;2022-10-31T11:53:20;15.20;99.90
40952;DHT22;26682;51.660;19.338;2022-10-31T11:56:59;15.30;99.90
40952;DHT22;26682;51.660;19.338;2022-10-31T11:58:59;15.30;99.90
40952;DHT22;26682;51.660;19.338;2022-10-31T12:00:52;15.40;99.90
40952;DHT22;26682;51.660;19.338;2022-10-31T12:02:39;15.50;99.90
40952;DHT22;26682;51.660;19.338;2022-10-31T12:04:46;15.50;99.90
40952;DHT22;26682;51.660;19.338;2022-10-31T12:06:41;15.60;99.90
40952;DHT22;26682;51.660;19.338;2022-10-31T12:08:31;15.60;99.90
40952;DHT22;26682;51.660;19.338;2022-10-31T12:10:19;15.60;99.90
40952;DHT22;26682;51.660;19.338;2022-10-31T12:31:46;15.80;99.90
40952;DHT22;26682;51.660;19.338;2022-10-31T12:50:43;16.10;99.90
40952;DHT22;26682;51.660;19.338;2022-10-31T12:55:20;16.20;99.90
40952;DHT22;26682;51.660;19.338;2022-10-31T12:58:59;16.30;99.90
40952;DHT22;26682;51.660;19.338;2022-10-31T13:01:13;16.30;99.90
40952;DHT22;26682;51.660;19.338;2022-10-31T13:03:02;16.30;99.90
40952;DHT22;26682;51.660;19.338;2022-10-31T13:06:58;16.40;99.90
40952;DHT22;26682;51.660;19.338;2022-10-31T13:08:55;16.40;99.90
40952;DHT22;26682;51.660;19.338;2022-10-31T13:11:00;16.40;99.90
40952;DHT22;26682;51.660;19.338;2022-10-31T13:12:50;16.40;99.90
40952;DHT22;26682;51.660;19.338;2022-10-31T13:14:47;16.40;99.90
40952;DHT22;26682;51.660;19.338;2022-10-31T13:16:38;16.50;99.90
40952;DHT22;26682;51.660;19.338;2022-10-31T13:18:35;16.50;99.90
40952;DHT22;26682;51.660;19.338;2022-10-31T13:20:34;16.50;99.90
40952;DHT22;26682;51.660;19.338;2022-10-31T13:22:30;16.40;99.90